createdAt,value
2023-02-27T00:03:21.417Z,7.10
2023-02-27T00:07:26.218Z,8.80
2023-02-27T00:11:29.492Z,8.80
2023-02-27T00:15:33.144Z,10.50
2023-02-27T00:19:36.127Z,8.10
2023-02-27T00:23:38.879Z,8.80
2023-02-27T00:27:42.120Z,8.50
2023-02-27T00:31:45.091Z,7.40
2023-02-27T00:36:02.057Z,7.90
2023-02-27T00:40:05.781Z,6.30
2023-02-27T00:44:08.844Z,6.20
2023-02-27T00:48:11.884Z,6.00
2023-02-27T00:52:14.730Z,7.90
2023-02-27T00:56:17.707Z,8.80
2023-02-27T01:00:20.690Z,6.10
2023-02-27T01:04:23.617Z,8.30
2023-02-27T01:08:26.509Z,6.90
2023-02-27T01:12:29.502Z,7.70
2023-02-27T01:16:32.690Z,8.40
2023-02-27T01:20:35.613Z,7.20
2023-02-27T01:24:38.612Z,6.90
2023-02-27T01:28:41.557Z,8.30
2023-02-27T01:32:44.693Z,7.40
2023-02-27T01:36:47.554Z,8.90
2023-02-27T01:40:50.341Z,5.50
2023-02-27T01:45:11.959Z,6.50
2023-02-27T01:49:21.033Z,6.70
2023-02-27T01:53:26.582Z,6.90
2023-02-27T01:57:29.996Z,6.30
2023-02-27T02:01:34.826Z,8.50
2023-02-27T02:05:38.110Z,8.70
2023-02-27T02:09:45.292Z,6.20
2023-02-27T02:13:53.499Z,7.00
2023-02-27T02:18:11.566Z,8.90
2023-02-27T02:22:32.589Z,8.60
2023-02-27T02:27:07.950Z,7.50
2023-02-27T02:31:10.838Z,7.10
2023-02-27T02:35:46.399Z,7.90
2023-02-27T02:39:59.322Z,8.80
2023-02-27T02:44:20.308Z,8.10
2023-02-27T02:48:37.318Z,8.30
2023-02-27T02:52:54.338Z,7.30
2023-02-27T02:57:08.662Z,5.70
2023-02-27T03:01:27.405Z,5.70
2023-02-27T03:05:42.087Z,5.60
2023-02-27T03:09:57.628Z,4.70
2023-02-27T03:14:08.270Z,5.20
2023-02-27T03:18:20.757Z,4.20
2023-02-27T03:22:31.005Z,4.50
2023-02-27T03:26:39.143Z,5.70
2023-02-27T03:30:51.330Z,3.80
2023-02-27T03:34:54.820Z,3.30
2023-02-27T03:39:05.726Z,5.40
2023-02-27T03:43:21.133Z,5.90
2023-02-27T03:47:24.446Z,6.50
2023-02-27T03:51:28.972Z,5.80
2023-02-27T03:55:39.781Z,7.50
2023-02-27T03:59:43.636Z,7.80
2023-02-27T04:03:53.570Z,5.70
2023-02-27T04:08:25.890Z,5.40
2023-02-27T04:12:37.824Z,3.10
2023-02-27T04:17:23.318Z,3.90
2023-02-27T04:21:54.182Z,3.70
2023-02-27T04:26:09.203Z,4.30
2023-02-27T04:30:45.074Z,3.00
2023-02-27T04:34:59.905Z,3.70
2023-02-27T04:39:22.115Z,3.90
2023-02-27T04:43:27.914Z,3.20
2023-02-27T04:47:38.631Z,4.10
2023-02-27T04:51:52.011Z,3.90
2023-02-27T04:56:01.548Z,3.10
2023-02-27T05:00:09.280Z,3.30
2023-02-27T05:04:16.041Z,2.80
2023-02-27T05:08:24.340Z,3.20
2023-02-27T05:12:36.334Z,3.40
2023-02-27T05:16:46.670Z,3.20
2023-02-27T05:21:06.621Z,3.70
2023-02-27T05:25:16.113Z,3.60
2023-02-27T05:29:31.512Z,3.80
2023-02-27T05:34:05.869Z,3.40
2023-02-27T05:38:08.796Z,4.10
2023-02-27T05:42:18.344Z,3.70
2023-02-27T05:46:26.928Z,4.50
2023-02-27T05:50:33.967Z,3.60
2023-02-27T05:54:52.066Z,3.10
2023-02-27T05:59:01.080Z,5.10
2023-02-27T06:03:04.260Z,5.00
2023-02-27T06:07:08.643Z,4.50
2023-02-27T06:11:13.323Z,3.80
2023-02-27T06:15:17.556Z,3.50
2023-02-27T06:19:20.424Z,3.20
2023-02-27T06:23:23.255Z,3.80
2023-02-27T06:27:29.232Z,3.60
2023-02-27T06:31:32.091Z,5.30
2023-02-27T06:35:35.124Z,6.10
2023-02-27T06:39:45.224Z,5.10
2023-02-27T06:43:55.778Z,4.90
2023-02-27T06:47:58.586Z,5.10
2023-02-27T06:52:01.413Z,7.20
2023-02-27T06:56:04.866Z,4.00
2023-02-27T07:00:08.388Z,3.60
2023-02-27T07:04:14.250Z,5.30
2023-02-27T07:08:17.765Z,4.60
2023-02-27T07:12:20.745Z,5.80
2023-02-27T07:16:23.950Z,4.90
2023-02-27T07:20:27.487Z,5.70
2023-02-27T07:24:30.372Z,4.20
2023-02-27T07:28:33.464Z,3.90
2023-02-27T07:32:36.376Z,4.30
2023-02-27T07:36:39.703Z,4.80
2023-02-27T07:40:42.636Z,4.30
2023-02-27T07:44:45.703Z,5.70
2023-02-27T07:48:48.636Z,5.10
2023-02-27T07:52:52.480Z,3.50
2023-02-27T07:56:55.892Z,5.40
2023-02-27T08:01:03.655Z,4.40
2023-02-27T08:05:10.785Z,4.70
2023-02-27T08:09:47.712Z,5.80
2023-02-27T08:14:06.146Z,5.40
2023-02-27T08:18:11.112Z,6.70
2023-02-27T08:22:14.678Z,4.80
2023-02-27T08:26:18.958Z,5.60
2023-02-27T08:30:23.073Z,5.50
2023-02-27T08:34:26.546Z,5.50
2023-02-27T08:38:30.328Z,6.00
2023-02-27T08:42:34.254Z,6.00
2023-02-27T08:46:37.862Z,5.40
2023-02-27T08:50:40.980Z,4.00
2023-02-27T08:54:44.195Z,5.90
2023-02-27T08:58:48.952Z,5.30
2023-02-27T09:02:52.059Z,5.20
2023-02-27T09:06:55.299Z,4.50
2023-02-27T09:10:58.674Z,6.00
2023-02-27T09:15:02.344Z,5.60
2023-02-27T09:19:05.789Z,6.10
2023-02-27T09:23:09.573Z,5.10
2023-02-27T09:27:14.231Z,5.90
2023-02-27T09:31:18.403Z,4.90
2023-02-27T09:35:21.714Z,5.10
2023-02-27T09:39:25.127Z,3.30
2023-02-27T09:43:49.752Z,5.30
2023-02-27T09:48:25.438Z,4.70
2023-02-27T09:52:31.342Z,4.60
2023-02-27T09:56:49.417Z,4.50
2023-02-27T10:01:05.678Z,5.30
2023-02-27T10:05:14.658Z,4.50
2023-02-27T10:09:42.987Z,4.40
2023-02-27T10:14:02.228Z,4.30
2023-02-27T10:18:25.386Z,4.70
2023-02-27T10:22:43.548Z,4.70
2023-02-27T10:26:46.724Z,4.30
2023-02-27T10:30:53.288Z,4.20
2023-02-27T10:39:14.459Z,4.20
2023-02-27T10:43:19.681Z,4.40
2023-02-27T10:47:24.963Z,3.30
2023-02-27T10:51:36.381Z,5.20
2023-02-27T10:55:48.717Z,3.00
2023-02-27T10:59:55.937Z,2.00
2023-02-27T11:04:00.389Z,2.10
2023-02-27T11:08:30.966Z,2.50
2023-02-27T11:12:35.633Z,1.50
2023-02-27T11:16:54.896Z,3.30
2023-02-27T11:21:12.456Z,1.50
2023-02-27T11:25:24.592Z,2.00
2023-02-27T11:29:28.972Z,3.50
2023-02-27T11:33:38.433Z,3.70
2023-02-27T11:37:42.130Z,3.70
2023-02-27T11:41:45.872Z,3.30
2023-02-27T11:46:13.432Z,3.40
2023-02-27T11:50:31.658Z,2.40
2023-02-27T11:54:51.266Z,3.60
2023-02-27T11:59:12.728Z,3.50
2023-02-27T12:03:28.031Z,5.10
2023-02-27T12:07:49.960Z,5.00
2023-02-27T12:11:54.980Z,4.10
2023-02-27T12:16:08.195Z,3.90
2023-02-27T12:20:30.766Z,4.40
2023-02-27T12:24:47.716Z,3.00
2023-02-27T12:28:58.406Z,2.90
2023-02-27T12:33:36.583Z,3.60
2023-02-27T12:37:40.210Z,3.90
2023-02-27T12:41:51.897Z,3.60
2023-02-27T12:46:05.661Z,3.10
2023-02-27T12:50:17.252Z,3.00
2023-02-27T12:54:20.477Z,3.60
2023-02-27T12:58:26.336Z,5.10
2023-02-27T13:02:35.311Z,5.90
2023-02-27T13:07:04.420Z,4.30
2023-02-27T13:11:30.953Z,3.30
2023-02-27T13:15:45.943Z,3.00
2023-02-27T13:20:12.450Z,3.70
2023-02-27T13:24:23.918Z,2.80
2023-02-27T13:28:29.723Z,2.60
2023-02-27T13:32:45.640Z,4.50
2023-02-27T13:36:58.053Z,3.80
2023-02-27T13:41:25.482Z,2.60
2023-02-27T13:45:54.723Z,3.40
2023-02-27T13:50:03.288Z,4.80
2023-02-27T13:54:15.331Z,3.60
2023-02-27T13:58:24.730Z,2.50
2023-02-27T14:02:59.902Z,2.60
2023-02-27T14:07:11.371Z,3.00
2023-02-27T14:11:18.274Z,5.60
2023-02-27T14:15:24.422Z,3.50
2023-02-27T14:20:07.592Z,6.30
2023-02-27T14:24:19.638Z,9.40
2023-02-27T14:28:30.841Z,6.60
2023-02-27T14:32:37.228Z,4.20
2023-02-27T14:36:52.446Z,3.50
2023-02-27T14:41:34.483Z,2.70
2023-02-27T14:45:37.865Z,4.30
2023-02-27T14:54:52.786Z,5.80
2023-02-27T14:59:04.364Z,4.10
2023-02-27T15:03:26.484Z,3.70
2023-02-27T15:07:33.469Z,4.10
2023-02-27T15:11:43.230Z,3.30
2023-02-27T15:15:48.933Z,4.30
2023-02-27T15:19:56.989Z,4.10
2023-02-27T15:24:04.372Z,5.70
2023-02-27T15:28:22.573Z,4.80
2023-02-27T15:32:29.949Z,4.20
2023-02-27T15:36:35.786Z,3.70
2023-02-27T15:40:39.336Z,3.70
2023-02-27T15:44:45.749Z,4.30
2023-02-27T15:48:51.542Z,4.90
2023-02-27T15:53:07.185Z,5.50
2023-02-27T15:57:10.619Z,4.20
2023-02-27T16:01:19.232Z,4.20
2023-02-27T16:05:30.808Z,3.60
2023-02-27T16:09:37.145Z,5.00
2023-02-27T16:13:41.386Z,3.40
2023-02-27T16:18:22.557Z,6.30
2023-02-27T16:22:26.402Z,6.20
2023-02-27T16:26:32.419Z,7.60
2023-02-27T16:30:35.563Z,8.50
2023-02-27T16:34:45.442Z,7.20
2023-02-27T16:38:50.856Z,8.20
2023-02-27T16:42:53.946Z,6.70
2023-02-27T16:46:58.933Z,10.00
2023-02-27T16:51:02.237Z,11.50
2023-02-27T16:55:05.453Z,9.20
2023-02-27T16:59:28.346Z,10.50
2023-02-27T17:03:31.444Z,10.10
2023-02-27T17:07:34.333Z,8.50
2023-02-27T17:11:37.195Z,7.10
2023-02-27T17:15:39.955Z,8.90
2023-02-27T17:19:42.792Z,9.90
2023-02-27T17:23:46.798Z,13.40
2023-02-27T17:27:50.205Z,13.70
2023-02-27T17:31:53.148Z,12.60
2023-02-27T17:36:07.281Z,8.90
2023-02-27T17:40:12.280Z,11.10
2023-02-27T17:44:15.241Z,12.00
2023-02-27T17:48:18.391Z,11.20
2023-02-27T17:52:21.224Z,13.10
2023-02-27T17:56:24.331Z,18.00
2023-02-27T18:00:27.307Z,14.70
2023-02-27T18:04:30.251Z,11.90
2023-02-27T18:08:34.066Z,12.70
2023-02-27T18:12:37.179Z,11.20
2023-02-27T18:16:40.093Z,8.90
2023-02-27T18:20:43.177Z,12.70
2023-02-27T18:24:45.979Z,9.60
2023-02-27T18:28:49.199Z,8.90
2023-02-27T18:32:56.393Z,9.40
2023-02-27T18:36:59.285Z,9.60
2023-02-27T18:41:03.458Z,8.60
2023-02-27T18:45:06.745Z,8.40
2023-02-27T18:49:09.744Z,7.00
2023-02-27T18:53:12.571Z,7.00
2023-02-27T18:57:15.760Z,7.50
2023-02-27T19:01:29.870Z,10.00
2023-02-27T19:05:33.125Z,12.40
2023-02-27T19:09:35.900Z,13.80
2023-02-27T19:13:39.023Z,13.50
2023-02-27T19:17:41.809Z,11.40
2023-02-27T19:21:45.091Z,11.30
2023-02-27T19:25:49.096Z,9.90
2023-02-27T19:29:51.975Z,9.90
2023-02-27T19:33:54.954Z,9.00
2023-02-27T19:37:58.255Z,9.90
2023-02-27T19:42:01.210Z,10.10
2023-02-27T19:46:12.521Z,11.30
2023-02-27T19:50:16.322Z,11.20
2023-02-27T19:54:19.810Z,13.10
2023-02-27T19:58:22.856Z,25.20
2023-02-27T20:02:26.450Z,32.50
2023-02-27T20:06:33.061Z,24.70
2023-02-27T20:10:35.916Z,14.50
2023-02-27T20:14:38.766Z,12.60
2023-02-27T20:18:43.454Z,11.30
2023-02-27T20:22:46.462Z,10.50
2023-02-27T20:26:53.455Z,10.80
2023-02-27T20:30:56.319Z,11.80
2023-02-27T20:34:59.247Z,13.50
2023-02-27T20:39:02.803Z,11.60
2023-02-27T20:43:05.847Z,12.50
2023-02-27T20:47:09.208Z,15.30
2023-02-27T20:51:24.337Z,15.30
2023-02-27T20:55:27.133Z,18.50
2023-02-27T20:59:29.963Z,18.50
2023-02-27T21:03:38.447Z,17.70
2023-02-27T21:07:42.033Z,19.50
2023-02-27T21:11:45.105Z,19.00
2023-02-27T21:15:48.042Z,17.10
2023-02-27T21:19:51.105Z,20.80
2023-02-27T21:23:54.509Z,21.90
2023-02-27T21:28:02.256Z,23.30
2023-02-27T21:32:05.671Z,21.00
2023-02-27T21:36:09.595Z,20.70
2023-02-27T21:40:12.852Z,20.40
2023-02-27T21:44:18.921Z,20.20
2023-02-27T21:48:21.733Z,20.60
2023-02-27T21:52:24.621Z,19.80
2023-02-27T21:56:29.746Z,19.20
2023-02-27T22:00:33.665Z,17.00
2023-02-27T22:04:36.659Z,23.70
2023-02-27T22:08:40.263Z,18.50
2023-02-27T22:12:43.083Z,22.40
2023-02-27T22:16:45.970Z,19.20
2023-02-27T22:20:48.861Z,19.10
2023-02-27T22:24:51.781Z,24.70
2023-02-27T22:28:58.629Z,23.40
2023-02-27T22:33:01.505Z,23.90
2023-02-27T22:37:04.449Z,24.90
2023-02-27T22:41:12.866Z,25.70
2023-02-27T22:45:15.753Z,21.60
2023-02-27T22:49:21.594Z,19.90
2023-02-27T22:53:24.675Z,23.90
2023-02-27T22:57:27.560Z,23.40
2023-02-27T23:01:32.736Z,23.80
2023-02-27T23:05:35.733Z,21.30
2023-02-27T23:09:38.550Z,23.70
2023-02-27T23:13:41.686Z,22.20
2023-02-27T23:17:56.616Z,25.90
2023-02-27T23:22:01.019Z,21.80
2023-02-27T23:26:05.714Z,27.90
2023-02-27T23:30:10.570Z,24.90
2023-02-27T23:34:13.385Z,22.70
2023-02-27T23:38:16.272Z,24.20
2023-02-27T23:42:19.265Z,25.00
2023-02-27T23:46:22.054Z,28.80
2023-02-27T23:50:28.130Z,24.00
2023-02-27T23:54:30.984Z,18.40
2023-02-27T23:58:33.868Z,15.70
